»·PEaware :: SWA481 KABQ-KSAN

SWA481 :: KABQ-KSAN

FLIGHT INFORMATION

Flight Status: Arrived
Operator:
Southwest Airlines
More flights by this operator :: More flights under this callsign
Pilot: Maximilliano F. (23467)
Aircraft: BOEING 737-800
(B738)
More flights by this aircraft type
Origin: KABQ Albuquerque Intl Sunport
United States
Destination: KSAN San Diego Intl-Lindbergh
United States
More flights between these airports :: More routes between these airports
Route: MNZNO3 SJN J18 HOGGZ LUCKI1
File this flight plan on PilotEdge
Remarks: RMK / SIMBRIEF
Altitude:
(Current/Filed)
34,000ft
Speed:
(Current/Filed)
462kts
Departed: 22-Oct-19 07:31 PM
Arrived: 22-Oct-19 09:02 PM
Distance/Time
Traveled:
545nm/1:31
Distance/Time
To Go:
Arrived

Flight Plot

Page will automatically refresh every two minutes.

Flight plan parsing failed; only flown route is shown


Map Options




Map Legend


Flown Route
Filed Route
Departure Airport
Arrival Airport
Navaid (VOR, NDB)
Fix

Horizontal Profiles

Position Reports

Time Latitude Longitude Heading Altitude Ground
Speed
22-Oct-19 19:01 35.047889 -106.614753 180 5323ft 0kts
22-Oct-19 19:03 35.047889 -106.614753 180 5323ft 0kts
22-Oct-19 19:04 35.047889 -106.614753 180 5323ft 0kts
22-Oct-19 19:05 35.047889 -106.614753 180 5323ft 0kts
22-Oct-19 19:06 35.047889 -106.614753 180 5323ft 0kts
22-Oct-19 19:07 35.047889 -106.614753 180 5323ft 0kts
22-Oct-19 19:08 35.047889 -106.614753 180 5323ft 0kts
22-Oct-19 19:09 35.047889 -106.614753 180 5323ft 0kts
22-Oct-19 19:10 35.047889 -106.614753 180 5323ft 0kts
22-Oct-19 19:11 35.047889 -106.614753 180 5322ft 0kts
22-Oct-19 19:12 35.047889 -106.614753 180 5322ft 0kts
22-Oct-19 19:13 35.047889 -106.614753 180 5322ft 0kts
22-Oct-19 19:14 35.047889 -106.614753 180 5322ft 0kts
22-Oct-19 19:15 35.047889 -106.614753 180 5322ft 0kts
22-Oct-19 19:16 35.047889 -106.614753 180 5322ft 0kts
22-Oct-19 19:17 35.047889 -106.614753 180 5322ft 0kts
22-Oct-19 19:18 35.047889 -106.614753 180 5322ft 0kts
22-Oct-19 19:18 35.047889 -106.614753 180 5322ft 0kts
22-Oct-19 19:20 35.048331 -106.614903 118 5323ft 2kts
22-Oct-19 19:21 35.048368 -106.615137 89 5322ft 0kts
22-Oct-19 19:22 35.048368 -106.615137 89 5322ft 0kts
22-Oct-19 19:22 35.048368 -106.615137 89 5322ft 0kts
22-Oct-19 19:24 35.048356 -106.614364 91 5322ft 8kts
22-Oct-19 19:25 35.048199 -106.613225 139 5322ft 6kts
22-Oct-19 19:25 35.045609 -106.613868 248 5322ft 14kts
22-Oct-19 19:26 35.045579 -106.619495 269 5322ft 20kts
22-Oct-19 19:27 35.045279 -106.621355 199 5322ft 0kts
22-Oct-19 19:28 35.045271 -106.621359 198 5322ft 0kts
22-Oct-19 19:29 35.044338 -106.619801 89 5322ft 13kts
22-Oct-19 19:30 35.044281 -106.577343 87 5651ft 196kts
22-Oct-19 19:31 35.022434 -106.518691 167 7494ft 251kts
22-Oct-19 19:32 34.944123 -106.513090 184 8974ft 295kts
22-Oct-19 19:33 34.860238 -106.519422 195 11302ft 328kts
22-Oct-19 19:34 34.786194 -106.581346 241 14310ft 333kts
22-Oct-19 19:35 34.745897 -106.683838 250 17609ft 344kts
22-Oct-19 19:36 34.704243 -106.791362 248 20668ft 360kts
22-Oct-19 19:37 34.660751 -106.902747 248 23448ft 373kts
22-Oct-19 19:38 34.615458 -107.018336 248 25925ft 388kts
22-Oct-19 19:39 34.578942 -107.142938 257 28138ft 399kts
22-Oct-19 19:40 34.546717 -107.273426 257 30263ft 412kts
22-Oct-19 19:41 34.513554 -107.406252 257 32746ft 409kts
22-Oct-19 19:42 34.480432 -107.538469 257 34211ft 420kts
22-Oct-19 19:43 34.446735 -107.671978 256 34219ft 414kts
22-Oct-19 19:44 34.432644 -107.808904 272 34223ft 410kts
22-Oct-19 19:45 34.432676 -107.946753 272 34220ft 410kts
22-Oct-19 19:46 34.432337 -108.085009 272 34242ft 410kts
22-Oct-19 19:47 34.431838 -108.222601 272 34287ft 408kts
22-Oct-19 19:48 34.431210 -108.359447 272 34297ft 408kts
22-Oct-19 19:49 34.430408 -108.496785 272 34299ft 407kts
22-Oct-19 19:50 34.429466 -108.633635 272 34297ft 407kts
22-Oct-19 19:51 34.428345 -108.768690 272 34305ft 407kts
22-Oct-19 19:52 34.427115 -108.905202 271 34303ft 406kts
22-Oct-19 19:53 34.425721 -109.041931 272 34294ft 407kts
22-Oct-19 19:54 34.411663 -109.177840 254 34290ft 416kts
22-Oct-19 19:55 34.368738 -109.308379 252 34281ft 417kts
22-Oct-19 19:56 34.325004 -109.438033 252 34281ft 418kts
22-Oct-19 19:57 34.280901 -109.568298 252 34280ft 418kts
22-Oct-19 19:58 34.238192 -109.693387 251 34287ft 419kts
22-Oct-19 19:59 34.193625 -109.823791 251 34305ft 419kts
22-Oct-19 20:00 34.149046 -109.953845 251 34320ft 419kts
22-Oct-19 20:01 34.104316 -110.083811 251 34292ft 420kts
22-Oct-19 20:02 34.059449 -110.213632 251 34248ft 419kts
22-Oct-19 20:03 34.014566 -110.342977 251 34246ft 420kts
22-Oct-19 20:04 33.969113 -110.472494 251 34245ft 420kts
22-Oct-19 20:05 33.923767 -110.602123 251 34245ft 420kts
22-Oct-19 20:06 33.880003 -110.726643 250 34247ft 420kts
22-Oct-19 20:07 33.834397 -110.855885 250 34246ft 420kts
22-Oct-19 20:08 33.788593 -110.984701 250 34176ft 421kts
22-Oct-19 20:09 33.742457 -111.114439 250 34072ft 421kts
22-Oct-19 20:10 33.696301 -111.243713 250 34052ft 421kts
22-Oct-19 20:11 33.649766 -111.373031 250 34051ft 422kts
22-Oct-19 20:12 33.603281 -111.502211 250 34050ft 421kts
22-Oct-19 20:13 33.556580 -111.631471 250 34049ft 422kts
22-Oct-19 20:14 33.510118 -111.759489 249 34056ft 422kts
22-Oct-19 20:15 33.462987 -111.888917 249 34052ft 422kts
22-Oct-19 20:16 33.404818 -112.012605 235 34039ft 430kts
22-Oct-19 20:17 33.329465 -112.124363 235 34027ft 430kts
22-Oct-19 20:18 33.254423 -112.235712 235 34026ft 430kts
22-Oct-19 20:19 33.179190 -112.346998 235 34026ft 430kts
22-Oct-19 20:20 33.104026 -112.457845 235 34024ft 431kts
22-Oct-19 20:21 33.028926 -112.568264 235 34015ft 430kts
22-Oct-19 20:22 32.962911 -112.684274 251 34018ft 422kts
22-Oct-19 20:23 32.936678 -112.819214 263 34012ft 418kts
22-Oct-19 20:24 32.918447 -112.955621 263 34011ft 419kts
22-Oct-19 20:25 32.899988 -113.091302 262 34011ft 421kts
22-Oct-19 20:26 32.881070 -113.229141 262 34006ft 420kts
22-Oct-19 20:27 32.862119 -113.366148 262 34005ft 420kts
22-Oct-19 20:28 32.843058 -113.502773 262 34004ft 420kts
22-Oct-19 20:29 32.823686 -113.640497 262 34004ft 421kts
22-Oct-19 20:30 32.804050 -113.776103 262 34009ft 421kts
22-Oct-19 20:31 32.784466 -113.912851 262 34009ft 421kts
22-Oct-19 20:32 32.774749 -114.049219 271 34014ft 418kts
22-Oct-19 20:33 32.779641 -114.186807 274 34010ft 418kts
22-Oct-19 20:34 32.785146 -114.324643 273 34006ft 418kts
22-Oct-19 20:35 32.807342 -114.459350 288 34005ft 417kts
22-Oct-19 20:36 32.843706 -114.590317 288 34004ft 418kts
22-Oct-19 20:37 32.875847 -114.721338 278 34014ft 418kts
22-Oct-19 20:38 32.876501 -114.859953 269 34009ft 420kts
22-Oct-19 20:39 32.873357 -114.998510 269 34008ft 418kts
22-Oct-19 20:40 32.870125 -115.136729 269 34007ft 419kts
22-Oct-19 20:41 32.866661 -115.277505 270 31113ft 428kts
22-Oct-19 20:42 32.854352 -115.417760 262 27686ft 425kts
22-Oct-19 20:43 32.833987 -115.552099 261 26012ft 401kts
22-Oct-19 20:44 32.812130 -115.685040 261 26005ft 414kts
22-Oct-19 20:45 32.790489 -115.816524 261 24336ft 403kts
22-Oct-19 20:46 32.777892 -115.945905 267 22778ft 391kts
22-Oct-19 20:47 32.768398 -116.073045 268 19536ft 390kts
22-Oct-19 20:48 32.758803 -116.199320 268 16406ft 380kts
22-Oct-19 20:49 32.749558 -116.318396 268 14416ft 344kts
22-Oct-19 20:50 32.740879 -116.429823 268 11888ft 335kts
22-Oct-19 20:51 32.732350 -116.532414 267 10989ft 282kts
22-Oct-19 20:52 32.723088 -116.627219 266 9850ft 283kts
22-Oct-19 20:53 32.715277 -116.719187 266 7826ft 288kts
22-Oct-19 20:54 32.707150 -116.813910 259 6100ft 276kts
22-Oct-19 20:55 32.684212 -116.893192 252 5394ft 239kts
22-Oct-19 20:56 32.679084 -116.967081 286 4180ft 214kts
22-Oct-19 20:57 32.695136 -117.031833 287 3034ft 194kts
22-Oct-19 20:58 32.708649 -117.087195 287 1920ft 162kts
22-Oct-19 20:59 32.720803 -117.137144 286 879ft 156kts
22-Oct-19 21:00 32.732551 -117.185630 286 21ft 134kts
22-Oct-19 21:01 32.735001 -117.198613 253 20ft 11kts
22-Oct-19 21:02 32.734275 -117.196899 105 21ft 9kts
22-Oct-19 21:03 32.732720 -117.194543 226 21ft 3kts
22-Oct-19 21:04 32.732804 -117.195110 287 21ft 3kts
22-Oct-19 21:05 32.732864 -117.195452 279 21ft 0kts

Navigation Log

Ident Type
Flight plan parsing failed, navigation log unavailable